createdAt,value
2018-10-17T00:00:22.368Z,10.24
2018-10-17T00:02:51.201Z,10.20
2018-10-17T00:05:20.057Z,10.23
2018-10-17T00:07:48.921Z,10.22
2018-10-17T00:10:18.107Z,10.20
2018-10-17T00:12:46.910Z,10.15
2018-10-17T00:15:15.805Z,10.17
2018-10-17T00:17:44.666Z,10.12
2018-10-17T00:20:13.503Z,10.09
2018-10-17T00:22:42.334Z,10.06
2018-10-17T00:25:11.336Z,10.04
2018-10-17T00:27:40.172Z,10.03
2018-10-17T00:30:11.074Z,10.03
2018-10-17T00:32:39.961Z,10.00
2018-10-17T00:35:09.793Z,9.98
2018-10-17T00:37:38.652Z,9.98
2018-10-17T00:40:07.750Z,10.01
2018-10-17T00:42:36.842Z,10.02
2018-10-17T00:45:06.626Z,10.01
2018-10-17T00:47:35.584Z,10.00
2018-10-17T00:50:04.501Z,10.02
2018-10-17T00:52:33.387Z,10.04
2018-10-17T00:55:02.401Z,10.08
2018-10-17T00:57:31.225Z,10.04
2018-10-17T01:00:00.113Z,10.09
2018-10-17T01:02:28.974Z,10.13
2018-10-17T01:04:57.834Z,10.18
2018-10-17T01:07:26.634Z,10.22
2018-10-17T01:09:55.594Z,10.25
2018-10-17T01:12:24.431Z,10.31
2018-10-17T01:14:54.493Z,10.35
2018-10-17T01:17:24.071Z,10.36
2018-10-17T01:19:53.066Z,10.34
2018-10-17T01:22:21.967Z,10.37
2018-10-17T01:24:50.794Z,10.43
2018-10-17T01:27:19.705Z,10.46
2018-10-17T01:29:50.847Z,10.55
2018-10-17T01:32:19.715Z,10.60
2018-10-17T01:34:48.583Z,10.54
2018-10-17T01:37:17.412Z,10.56
2018-10-17T01:39:46.363Z,10.60
2018-10-17T01:42:15.356Z,10.60
2018-10-17T01:44:45.174Z,10.62
2018-10-17T01:47:14.217Z,10.70
2018-10-17T01:49:43.183Z,10.75
2018-10-17T01:52:11.923Z,10.86
2018-10-17T01:54:40.777Z,10.87
2018-10-17T01:57:09.725Z,10.88
2018-10-17T01:59:38.568Z,10.85
2018-10-17T02:02:07.530Z,10.90
2018-10-17T02:04:36.334Z,10.95
2018-10-17T02:07:05.420Z,10.97
2018-10-17T02:09:34.324Z,10.99
2018-10-17T02:12:03.248Z,11.02
2018-10-17T02:14:32.060Z,11.06
2018-10-17T02:17:01.306Z,11.09
2018-10-17T02:19:30.153Z,11.14
2018-10-17T02:21:59.153Z,11.03
2018-10-17T02:24:27.962Z,10.92
2018-10-17T02:26:56.806Z,10.87
2018-10-17T02:29:25.640Z,10.88
2018-10-17T02:31:54.570Z,10.80
2018-10-17T02:34:23.407Z,10.87
2018-10-17T02:36:52.355Z,10.77
2018-10-17T02:39:21.376Z,10.73
2018-10-17T02:41:50.214Z,10.74
2018-10-17T02:44:19.083Z,10.70
2018-10-17T02:46:47.936Z,10.64
2018-10-17T02:49:16.831Z,10.62
2018-10-17T02:51:45.659Z,10.61
2018-10-17T02:54:14.526Z,10.55
2018-10-17T02:56:43.370Z,10.48
2018-10-17T02:59:12.299Z,10.46
2018-10-17T03:01:41.573Z,10.41
2018-10-17T03:04:10.413Z,10.32
2018-10-17T03:06:39.194Z,10.31
2018-10-17T03:09:09.111Z,10.30
2018-10-17T03:11:37.837Z,10.32
2018-10-17T03:14:06.683Z,10.31
2018-10-17T03:16:35.603Z,10.32
2018-10-17T03:19:04.506Z,10.29
2018-10-17T03:21:33.458Z,10.25
2018-10-17T03:24:02.309Z,10.22
2018-10-17T03:26:31.514Z,10.22
2018-10-17T03:29:00.374Z,10.25
2018-10-17T03:31:29.314Z,10.27
2018-10-17T03:33:58.135Z,10.30
2018-10-17T03:36:26.973Z,10.31
2018-10-17T03:38:55.943Z,10.34
2018-10-17T03:41:24.760Z,10.38
2018-10-17T03:43:53.607Z,10.42
2018-10-17T03:46:22.503Z,10.44
2018-10-17T03:48:52.291Z,10.47
2018-10-17T03:51:21.569Z,10.46
2018-10-17T03:53:50.576Z,10.43
2018-10-17T03:56:19.748Z,10.45
2018-10-17T03:58:48.854Z,10.42
2018-10-17T04:01:19.395Z,10.40
2018-10-17T04:03:48.997Z,10.38
2018-10-17T04:09:09.094Z,10.35
2018-10-17T04:11:37.875Z,10.37
2018-10-17T04:14:06.727Z,10.34
2018-10-17T04:16:35.612Z,10.28
2018-10-17T04:19:04.560Z,10.26
2018-10-17T04:21:33.463Z,10.22
2018-10-17T04:24:02.405Z,10.25
2018-10-17T04:26:31.300Z,10.07
2018-10-17T04:29:00.154Z,10.01
2018-10-17T04:31:29.001Z,9.95
2018-10-17T04:33:57.857Z,9.91
2018-10-17T04:36:26.759Z,9.89
2018-10-17T04:38:56.759Z,9.85
2018-10-17T04:41:25.622Z,9.81
2018-10-17T04:43:54.376Z,9.79
2018-10-17T04:46:23.265Z,9.78
2018-10-17T04:48:52.260Z,9.78
2018-10-17T04:51:21.066Z,9.73
2018-10-17T04:53:49.943Z,9.77
2018-10-17T04:56:18.763Z,9.79
2018-10-17T04:58:47.612Z,9.78
2018-10-17T05:01:16.504Z,9.75
2018-10-17T05:03:45.410Z,9.78
2018-10-17T05:06:14.332Z,9.81
2018-10-17T05:08:43.250Z,9.81
2018-10-17T05:11:12.165Z,9.84
2018-10-17T05:13:42.832Z,9.88
2018-10-17T05:16:11.664Z,9.90
2018-10-17T05:18:40.630Z,9.89
2018-10-17T05:21:09.441Z,9.87
2018-10-17T05:23:38.527Z,9.84
2018-10-17T05:26:07.398Z,9.82
2018-10-17T05:28:36.232Z,9.79
2018-10-17T05:31:05.296Z,9.63
2018-10-17T05:33:34.273Z,9.59
2018-10-17T05:36:03.191Z,9.62
2018-10-17T05:38:32.106Z,9.68
2018-10-17T05:41:01.054Z,9.72
2018-10-17T05:43:30.106Z,9.80
2018-10-17T05:45:59.080Z,9.84
2018-10-17T05:48:28.779Z,9.78
2018-10-17T05:50:57.623Z,9.92
2018-10-17T05:53:26.503Z,9.99
2018-10-17T05:55:55.347Z,9.89
2018-10-17T05:58:24.303Z,10.06
2018-10-17T06:00:53.203Z,10.20
2018-10-17T06:03:22.059Z,10.26
2018-10-17T06:05:51.070Z,10.37
2018-10-17T06:08:19.959Z,10.49
2018-10-17T06:10:48.771Z,10.60
2018-10-17T06:13:17.614Z,10.69
2018-10-17T06:15:46.414Z,10.94
2018-10-17T06:18:15.180Z,11.31
2018-10-17T06:20:44.142Z,11.60
2018-10-17T06:23:13.142Z,11.57
2018-10-17T06:28:47.090Z,11.59
2018-10-17T06:31:15.836Z,11.70
2018-10-17T06:33:44.337Z,11.86
2018-10-17T06:36:12.947Z,11.96
2018-10-17T06:38:41.500Z,11.96
2018-10-17T06:41:10.253Z,12.00
2018-10-17T06:43:38.821Z,12.06
2018-10-17T06:46:07.313Z,12.31
2018-10-17T06:48:38.391Z,12.89
2018-10-17T06:51:07.035Z,13.49
2018-10-17T06:53:35.572Z,14.05
2018-10-17T06:56:04.170Z,14.72
2018-10-17T06:58:32.786Z,14.81
2018-10-17T07:01:01.625Z,14.69
2018-10-17T07:03:31.049Z,14.42
2018-10-17T07:06:01.396Z,14.20
2018-10-17T07:08:31.754Z,14.28
2018-10-17T07:11:01.177Z,14.45
2018-10-17T07:13:31.459Z,14.97
2018-10-17T07:16:01.764Z,15.83
2018-10-17T07:18:31.406Z,16.81
2018-10-17T07:21:01.473Z,17.61
2018-10-17T07:23:30.964Z,17.73
2018-10-17T07:26:01.076Z,17.80
2018-10-17T07:28:30.895Z,17.88
2018-10-17T07:31:01.246Z,18.33
2018-10-17T07:33:30.812Z,18.88
2018-10-17T07:36:01.766Z,18.90
2018-10-17T07:38:32.486Z,19.20
2018-10-17T07:41:01.851Z,19.54
2018-10-17T07:43:34.280Z,19.28
2018-10-17T07:46:03.900Z,18.93
2018-10-17T07:48:33.428Z,18.66
2018-10-17T07:51:03.558Z,18.48
2018-10-17T07:53:32.477Z,18.29
2018-10-17T07:56:01.732Z,18.13
2018-10-17T07:58:30.784Z,18.01
2018-10-17T08:00:59.971Z,17.90
2018-10-17T08:03:31.098Z,17.93
2018-10-17T08:05:59.990Z,17.96
2018-10-17T08:08:29.611Z,18.28
2018-10-17T08:11:00.052Z,19.01
2018-10-17T08:13:29.590Z,19.85
2018-10-17T08:16:00.312Z,19.94
2018-10-17T08:18:31.639Z,19.49
2018-10-17T08:21:01.467Z,19.70
2018-10-17T08:23:30.883Z,19.63
2018-10-17T08:25:59.959Z,19.05
2018-10-17T08:28:29.465Z,18.64
2018-10-17T08:30:58.834Z,18.66
2018-10-17T08:33:30.287Z,19.75
2018-10-17T08:35:59.864Z,21.36
2018-10-17T08:38:29.231Z,22.00
2018-10-17T08:40:58.707Z,21.95
2018-10-17T08:43:28.011Z,21.45
2018-10-17T08:45:57.082Z,22.00
2018-10-17T08:48:27.753Z,22.67
2018-10-17T08:50:57.615Z,23.26
2018-10-17T08:53:27.758Z,24.28
2018-10-17T08:55:56.960Z,24.71
2018-10-17T08:58:25.802Z,25.45
2018-10-17T09:00:54.694Z,25.75
2018-10-17T09:03:24.700Z,25.53
2018-10-17T09:05:53.763Z,25.00
2018-10-17T09:08:24.806Z,24.37
2018-10-17T09:10:53.852Z,23.81
2018-10-17T09:13:24.809Z,22.99
2018-10-17T09:15:53.762Z,22.40
2018-10-17T09:18:22.652Z,22.37
2018-10-17T09:20:52.430Z,21.83
2018-10-17T09:23:21.644Z,22.27
2018-10-17T09:25:52.842Z,22.91
2018-10-17T09:28:21.709Z,23.99
2018-10-17T09:30:50.560Z,24.00
2018-10-17T09:33:19.418Z,23.23
2018-10-17T09:35:48.370Z,22.42
2018-10-17T09:38:17.415Z,21.94
2018-10-17T09:40:46.349Z,22.28
2018-10-17T09:43:15.558Z,23.02
2018-10-17T09:45:44.485Z,23.94
2018-10-17T09:48:13.477Z,24.69
2018-10-17T09:50:42.253Z,24.96
2018-10-17T09:53:12.293Z,25.40
2018-10-17T09:55:41.516Z,25.53
2018-10-17T09:58:10.317Z,25.88
2018-10-17T10:00:44.339Z,25.46
2018-10-17T10:03:13.174Z,25.80
2018-10-17T10:05:42.028Z,26.08
2018-10-17T10:08:10.858Z,26.17
2018-10-17T10:10:40.144Z,25.90
2018-10-17T10:13:09.082Z,25.57
2018-10-17T10:15:38.306Z,25.39
2018-10-17T10:18:07.250Z,26.20
2018-10-17T10:20:36.110Z,26.62
2018-10-17T10:23:05.116Z,26.36
2018-10-17T10:25:34.033Z,25.87
2018-10-17T10:28:03.652Z,26.05
2018-10-17T10:30:32.529Z,26.72
2018-10-17T10:33:02.327Z,26.83
2018-10-17T10:35:34.711Z,26.76
2018-10-17T10:38:03.686Z,27.18
2018-10-17T10:40:32.590Z,27.52
2018-10-17T10:43:01.856Z,27.05
2018-10-17T10:45:31.111Z,26.69
2018-10-17T10:48:00.130Z,27.12
2018-10-17T10:50:28.871Z,27.61
2018-10-17T10:52:57.779Z,27.27
2018-10-17T10:55:26.611Z,27.61
2018-10-17T10:57:55.901Z,27.48
2018-10-17T11:00:24.695Z,27.59
2018-10-17T11:02:53.574Z,27.73
2018-10-17T11:05:22.542Z,27.62
2018-10-17T11:07:51.332Z,26.84
2018-10-17T11:10:20.427Z,26.72
2018-10-17T11:12:49.327Z,26.89
2018-10-17T11:15:18.299Z,26.45
2018-10-17T11:17:47.578Z,25.97
2018-10-17T11:20:16.455Z,26.82
2018-10-17T11:22:45.277Z,27.04
2018-10-17T11:25:14.125Z,27.50
2018-10-17T11:27:42.911Z,27.68
2018-10-17T11:30:12.514Z,27.62
2018-10-17T11:32:41.636Z,27.84
2018-10-17T11:35:11.684Z,28.14
2018-10-17T11:37:40.415Z,28.01
2018-10-17T11:40:09.611Z,28.18
2018-10-17T11:42:38.354Z,28.49
2018-10-17T11:45:07.299Z,28.11
2018-10-17T11:47:36.851Z,27.83
2018-10-17T11:50:07.533Z,27.83
2018-10-17T11:52:36.440Z,27.68
2018-10-17T11:55:06.512Z,27.45
2018-10-17T11:57:35.389Z,27.24
2018-10-17T12:00:04.530Z,27.28
2018-10-17T12:02:33.477Z,27.27
2018-10-17T12:05:03.829Z,27.05
2018-10-17T12:07:32.589Z,27.33
2018-10-17T12:10:01.513Z,27.28
2018-10-17T12:12:30.278Z,27.30
2018-10-17T12:14:59.256Z,27.42
2018-10-17T12:17:28.223Z,27.08
2018-10-17T12:19:58.223Z,27.10
2018-10-17T12:22:27.076Z,26.83
2018-10-17T12:24:56.012Z,27.54
2018-10-17T12:27:24.930Z,27.20
2018-10-17T12:29:54.185Z,26.90
2018-10-17T12:32:23.133Z,26.70
2018-10-17T12:34:52.101Z,26.56
2018-10-17T12:37:20.978Z,26.41
2018-10-17T12:39:49.869Z,26.45
2018-10-17T12:42:18.763Z,26.62
2018-10-17T12:44:49.571Z,26.82
2018-10-17T12:47:18.465Z,27.05
2018-10-17T12:49:47.322Z,27.21
2018-10-17T12:52:16.370Z,26.89
2018-10-17T12:54:45.170Z,26.72
2018-10-17T12:57:15.415Z,26.87
2018-10-17T12:59:49.802Z,26.57
2018-10-17T13:02:18.667Z,26.53
2018-10-17T13:04:47.894Z,26.44
2018-10-17T13:07:16.904Z,26.65
2018-10-17T13:09:45.704Z,26.87
2018-10-17T13:12:14.535Z,27.19
2018-10-17T13:14:43.576Z,26.60
2018-10-17T13:17:12.492Z,26.32
2018-10-17T13:19:41.390Z,26.46
2018-10-17T13:22:11.432Z,25.98
2018-10-17T13:24:40.677Z,25.74
2018-10-17T13:27:09.523Z,25.38
2018-10-17T13:29:38.386Z,25.46
2018-10-17T13:32:07.222Z,26.10
2018-10-17T13:34:36.122Z,26.22
2018-10-17T13:37:05.316Z,26.38
2018-10-17T13:39:34.135Z,26.68
2018-10-17T13:42:03.012Z,25.70
2018-10-17T13:44:31.767Z,25.96
2018-10-17T13:47:01.021Z,25.52
2018-10-17T13:49:29.845Z,25.36
2018-10-17T13:51:58.810Z,25.65
2018-10-17T13:54:27.602Z,25.70
2018-10-17T13:56:56.465Z,25.41
2018-10-17T13:59:25.451Z,25.64
2018-10-17T14:01:54.271Z,25.80
2018-10-17T14:04:23.104Z,26.01
2018-10-17T14:09:43.032Z,25.77
2018-10-17T14:12:11.950Z,25.35
2018-10-17T14:14:41.262Z,25.40
2018-10-17T14:17:10.155Z,25.27
2018-10-17T14:19:39.112Z,24.95
2018-10-17T14:22:08.940Z,24.45
2018-10-17T14:24:37.803Z,24.29
2018-10-17T14:27:07.392Z,24.16
2018-10-17T14:29:36.464Z,24.09
2018-10-17T14:32:06.431Z,24.16
2018-10-17T14:34:35.520Z,24.17
2018-10-17T14:37:04.430Z,24.10
2018-10-17T14:39:33.337Z,24.26
2018-10-17T14:42:02.240Z,24.09
2018-10-17T14:44:31.365Z,24.11
2018-10-17T14:47:00.241Z,24.10
2018-10-17T14:49:29.560Z,24.22
2018-10-17T14:51:58.339Z,24.15
2018-10-17T14:54:27.218Z,23.83
2018-10-17T14:56:56.040Z,23.42
2018-10-17T14:59:24.937Z,23.34
2018-10-17T15:01:54.237Z,23.44
2018-10-17T15:04:23.148Z,23.43
2018-10-17T15:06:52.016Z,23.32
2018-10-17T15:09:20.912Z,23.31
2018-10-17T15:11:50.079Z,22.94
2018-10-17T15:14:18.744Z,22.34
2018-10-17T15:16:48.386Z,21.99
2018-10-17T15:19:17.240Z,21.96
2018-10-17T15:21:46.168Z,21.91
2018-10-17T15:24:15.161Z,21.79
2018-10-17T15:26:44.226Z,21.67
2018-10-17T15:29:13.028Z,21.64
2018-10-17T15:31:41.893Z,21.59
2018-10-17T15:34:10.827Z,21.45
2018-10-17T15:36:39.647Z,21.38
2018-10-17T15:39:10.128Z,21.30
2018-10-17T15:41:39.100Z,21.26
2018-10-17T15:44:08.463Z,21.18
2018-10-17T15:46:37.560Z,21.06
2018-10-17T15:49:07.107Z,20.91
2018-10-17T15:51:35.997Z,20.74
2018-10-17T15:54:05.449Z,20.53
2018-10-17T15:56:34.254Z,20.32
2018-10-17T15:59:03.080Z,20.12
2018-10-17T16:01:31.935Z,19.91
2018-10-17T16:04:00.881Z,19.70
2018-10-17T16:06:30.171Z,19.51
2018-10-17T16:08:58.984Z,19.30
2018-10-17T16:11:28.234Z,19.11
2018-10-17T16:13:57.562Z,18.93
2018-10-17T16:16:26.681Z,18.72
2018-10-17T16:18:56.416Z,18.50
2018-10-17T16:21:25.769Z,18.32
2018-10-17T16:23:55.768Z,18.18
2018-10-17T16:26:25.052Z,18.10
2018-10-17T16:29:01.629Z,17.98
2018-10-17T16:31:37.825Z,17.82
2018-10-17T16:34:09.087Z,17.72
2018-10-17T16:36:37.816Z,17.65
2018-10-17T16:39:09.693Z,17.54
2018-10-17T16:41:39.308Z,17.35
2018-10-17T16:44:08.768Z,17.23
2018-10-17T16:46:38.324Z,16.84
2018-10-17T16:49:08.102Z,16.69
2018-10-17T16:51:37.190Z,16.60
2018-10-17T16:54:06.271Z,16.54
2018-10-17T16:56:35.190Z,16.49
2018-10-17T16:59:04.710Z,16.38
2018-10-17T17:01:33.559Z,16.29
2018-10-17T17:04:03.600Z,16.20
2018-10-17T17:06:32.723Z,16.03
2018-10-17T17:09:02.593Z,15.83
2018-10-17T17:11:33.979Z,15.74
2018-10-17T17:14:02.923Z,15.68
2018-10-17T17:16:31.932Z,15.62
2018-10-17T17:19:02.857Z,15.56
2018-10-17T17:21:31.851Z,15.43
2018-10-17T17:24:00.682Z,15.30
2018-10-17T17:26:29.579Z,15.25
2018-10-17T17:28:58.443Z,15.12
2018-10-17T17:31:27.700Z,15.02
2018-10-17T17:33:56.555Z,14.98
2018-10-17T17:36:25.540Z,14.91
2018-10-17T17:38:54.366Z,14.83
2018-10-17T17:41:24.061Z,14.80
2018-10-17T17:43:52.959Z,14.70
2018-10-17T17:46:24.037Z,14.62
2018-10-17T17:48:52.943Z,14.61
2018-10-17T17:51:22.119Z,14.58
2018-10-17T17:53:51.020Z,14.54
2018-10-17T17:56:19.886Z,14.49
2018-10-17T17:58:48.908Z,14.45
2018-10-17T18:01:18.645Z,14.40
2018-10-17T18:03:47.952Z,14.36
2018-10-17T18:06:16.840Z,14.34
2018-10-17T18:08:45.777Z,14.32
2018-10-17T18:11:23.152Z,14.32
2018-10-17T18:13:53.144Z,14.30
2018-10-17T18:16:22.041Z,14.29
2018-10-17T18:18:50.873Z,14.24
2018-10-17T18:21:19.697Z,14.08
2018-10-17T18:23:48.523Z,13.99
2018-10-17T18:26:17.364Z,13.90
2018-10-17T18:28:46.577Z,13.82
2018-10-17T18:31:15.368Z,13.74
2018-10-17T18:33:44.318Z,13.67
2018-10-17T18:36:23.839Z,13.59
2018-10-17T18:38:52.916Z,13.53
2018-10-17T18:41:21.832Z,13.51
2018-10-17T18:43:51.152Z,13.52
2018-10-17T18:46:22.579Z,13.50
2018-10-17T18:48:52.238Z,13.51
2018-10-17T18:51:21.134Z,13.50
2018-10-17T18:53:50.016Z,13.48
2018-10-17T18:56:19.016Z,13.46
2018-10-17T18:58:47.869Z,13.39
2018-10-17T19:01:17.304Z,13.32
2018-10-17T19:03:46.484Z,13.25
2018-10-17T19:06:15.623Z,13.22
2018-10-17T19:08:44.971Z,13.12
2018-10-17T19:11:16.298Z,13.03
2018-10-17T19:13:47.456Z,12.91
2018-10-17T19:16:16.435Z,12.86
2018-10-17T19:18:46.315Z,12.81
2018-10-17T19:21:15.970Z,12.75
2018-10-17T19:23:44.902Z,12.67
2018-10-17T19:26:14.311Z,12.55
2018-10-17T19:28:43.613Z,12.53
2018-10-17T19:31:12.884Z,12.60
2018-10-17T19:33:42.201Z,12.60
2018-10-17T19:36:11.130Z,12.61
2018-10-17T19:38:39.930Z,12.60
2018-10-17T19:41:09.074Z,12.57
2018-10-17T19:43:38.095Z,12.57
2018-10-17T19:46:07.943Z,12.55
2018-10-17T19:48:39.834Z,12.50
2018-10-17T19:51:08.777Z,12.43
2018-10-17T19:53:38.232Z,12.32
2018-10-17T19:56:07.134Z,12.27
2018-10-17T19:58:39.171Z,12.21
2018-10-17T20:01:08.122Z,12.16
2018-10-17T20:03:36.973Z,12.11
2018-10-17T20:06:06.193Z,12.06
2018-10-17T20:08:36.534Z,12.03
2018-10-17T20:11:05.605Z,11.99
2018-10-17T20:13:34.644Z,11.99
2018-10-17T20:16:03.565Z,11.99
2018-10-17T20:18:32.378Z,11.97
2018-10-17T20:21:01.703Z,11.92
2018-10-17T20:23:30.516Z,11.87
2018-10-17T20:25:59.737Z,11.85
2018-10-17T20:28:28.697Z,11.83
2018-10-17T20:31:38.553Z,11.81
2018-10-17T20:34:08.107Z,11.73
2018-10-17T20:36:36.947Z,11.68
2018-10-17T20:39:09.719Z,11.62
2018-10-17T20:41:38.878Z,11.53
2018-10-17T20:44:07.770Z,11.48
2018-10-17T20:46:37.419Z,11.45
2018-10-17T20:49:06.863Z,11.43
2018-10-17T20:51:35.819Z,11.39
2018-10-17T20:54:04.718Z,11.34
2018-10-17T20:56:34.036Z,11.33
2018-10-17T20:59:02.887Z,11.29
2018-10-17T21:01:32.047Z,11.20
2018-10-17T21:04:00.844Z,11.15
2018-10-17T21:06:29.790Z,11.06
2018-10-17T21:08:58.580Z,10.98
2018-10-17T21:11:27.541Z,10.90
2018-10-17T21:13:56.365Z,10.80
2018-10-17T21:16:26.440Z,10.74
2018-10-17T21:18:55.533Z,10.72
2018-10-17T21:21:24.596Z,10.73
2018-10-17T21:23:53.396Z,10.73
2018-10-17T21:26:23.479Z,10.72
2018-10-17T21:28:55.025Z,10.72
2018-10-17T21:31:28.012Z,10.80
2018-10-17T21:33:58.746Z,10.82
2018-10-17T21:36:27.787Z,10.72
2018-10-17T21:38:57.447Z,10.67
2018-10-17T21:41:26.268Z,10.69
2018-10-17T21:43:55.290Z,10.69
2018-10-17T21:46:25.681Z,10.66
2018-10-17T21:48:55.771Z,10.64
2018-10-17T21:51:24.685Z,10.64
2018-10-17T21:53:54.913Z,10.66
2018-10-17T21:56:23.740Z,10.67
2018-10-17T21:58:53.594Z,10.67
2018-10-17T22:01:22.527Z,10.63
2018-10-17T22:03:51.355Z,10.63
2018-10-17T22:06:20.195Z,10.66
2018-10-17T22:08:49.123Z,10.69
2018-10-17T22:11:18.003Z,10.72
2018-10-17T22:13:46.904Z,10.68
2018-10-17T22:16:15.978Z,10.68
2018-10-17T22:18:46.350Z,10.66
2018-10-17T22:21:15.219Z,10.56
2018-10-17T22:23:44.232Z,10.46
2018-10-17T22:26:13.226Z,10.38
2018-10-17T22:28:42.506Z,10.37
2018-10-17T22:31:11.274Z,10.32
2018-10-17T22:33:40.141Z,10.20
2018-10-17T22:36:09.445Z,10.11
2018-10-17T22:38:38.421Z,10.08
2018-10-17T22:41:07.754Z,10.06
2018-10-17T22:43:37.097Z,10.01
2018-10-17T22:46:06.251Z,9.96
2018-10-17T22:48:35.115Z,9.93
2018-10-17T22:51:03.963Z,9.96
2018-10-17T22:53:32.803Z,9.95
2018-10-17T22:56:01.663Z,9.90
2018-10-17T22:58:30.551Z,9.86
2018-10-17T23:00:59.418Z,9.84
2018-10-17T23:03:29.008Z,9.80
2018-10-17T23:05:57.837Z,9.77
2018-10-17T23:08:27.022Z,9.73
2018-10-17T23:10:55.951Z,9.72
2018-10-17T23:13:24.799Z,9.73
2018-10-17T23:15:53.752Z,9.74
2018-10-17T23:18:22.617Z,9.77
2018-10-17T23:20:51.471Z,9.82
2018-10-17T23:23:20.368Z,9.82
2018-10-17T23:25:49.121Z,9.85
2018-10-17T23:28:18.052Z,9.86
2018-10-17T23:30:46.902Z,9.83
2018-10-17T23:33:15.681Z,9.74
2018-10-17T23:35:44.538Z,9.65
2018-10-17T23:38:13.482Z,9.59
2018-10-17T23:40:42.335Z,9.60
2018-10-17T23:43:11.458Z,9.63
2018-10-17T23:45:40.505Z,9.56
2018-10-17T23:48:10.267Z,9.55
2018-10-17T23:50:39.730Z,9.56
2018-10-17T23:53:10.177Z,9.57
2018-10-17T23:55:39.050Z,9.48
2018-10-17T23:58:07.962Z,9.43
